メインページ
METAR-TAF:

METAR-TAF

空港 :

マドリード, スペイン

アドルフォ・スアレス・マドリード=バラハス空港

緯度: 40-27N, 経度: 003-33W, 海抜: 609m

現時点の気象観測

当レポートは22分前の19:00(UTC)に作成
の風 4kt、南/南東から西の間で変化する
気温 11°C
湿度 25%
気圧 1011 hPa
視程10km以上
1,500メートル以下は雲なし、積乱雲なし

METAR: LEMD 251900Z 19004KT 150V260 CAVOK 11/M08 Q1011 NOSIG

時間: 20:22 (19:22 UTC)

予報

当レポートは2時間22分前の17:00(UTC)に作成
予報は25日の 18時(UTC)から 26日の 24時(UTC)まで有効
変向風 5kt
視程10km以上
1,500メートル以下は雲なし、積乱雲なし
26日の 22時(UTC)から 26日の 24時(UTC)まで一時的に
北東の風 10kt

TAF: LEMD 251700Z 2518/2624 VRB05KT CAVOK TX15/2615Z TNM03/2607Z TEMPO 2622/2624 04010KT

4,000以上の空港の気象観測と天気予報(METAR報とTAF報)

利用可能な観測所は地図上に黄色い丸と赤い丸で示す。

丸の上にカーソルを重ねると観測所名を参照できる。

次にクリックすると気象観測と天気予報を参照できる。

マップの切り替え:黒色「×」印の緑ボタンをクリックして拡大、「-」印の緑ボタンをクリックして縮小、緑色の三角印をクリックして隣りの地図に切り替え


METAR-TAF: